Time;durP1;ratioP1;P1;durP2;ratioP2;P2;SDS_P1;SDS_P2;PMS_P1;PMS_P2;Temp;Humidity;BMP_temperature;BMP_pressure;BME280_temperature;BME280_humidity;BME280_pressure;Samples;Min_cycle;Max_cycle;Signal;HPM_P1;HPM_P2
2023/05/23 00:02:21;;;;;;;35.40;20.42;;;14.70;99.90;;;;;;5054246;28;20045;-73
2023/05/23 00:04:48;;;;;;;32.80;19.73;;;14.70;99.90;;;;;;5046124;28;20493;-73
2023/05/23 00:07:15;;;;;;;35.65;20.17;;;14.80;99.90;;;;;;5035096;28;20490;-73
2023/05/23 00:09:40;;;;;;;31.17;19.33;;;14.70;99.90;;;;;;5050390;28;20053;-73
2023/05/23 00:12:06;;;;;;;29.02;19.65;;;14.70;99.90;;;;;;5042475;28;20075;-73
2023/05/23 00:14:32;;;;;;;26.02;18.05;;;14.60;99.90;;;;;;5053015;28;20041;-72
2023/05/23 00:16:59;;;;;;;25.77;18.23;;;14.60;99.90;;;;;;5038459;28;20443;-72
2023/05/23 00:19:25;;;;;;;29.73;17.27;;;14.60;99.90;;;;;;5033629;28;20505;-73
2023/05/23 00:21:52;;;;;;;31.65;17.30;;;14.60;99.90;;;;;;5034121;28;20042;-73
2023/05/23 00:24:19;;;;;;;26.08;16.63;;;14.50;99.90;;;;;;5034928;28;20052;-73
2023/05/23 00:26:45;;;;;;;25.83;16.38;;;14.60;99.90;;;;;;5045954;28;20505;-73
2023/05/23 00:29:15;;;;;;;29.50;17.67;;;14.70;99.90;;;;;;5036789;28;20048;-72
2023/05/23 00:31:47;;;;;;;25.58;16.67;;;14.70;99.90;;;;;;5052806;28;20053;-72
2023/05/23 00:34:19;;;;;;;;;;;14.70;99.90;;;;;;5052594;28;20056;-72
2023/05/23 00:36:49;;;;;;;25.40;16.43;;;14.70;99.90;;;;;;5062993;28;19917;-73
2023/05/23 00:39:18;;;;;;;23.85;14.93;;;14.70;99.90;;;;;;5033444;28;20047;-73
2023/05/23 00:41:48;;;;;;;27.52;16.13;;;14.70;99.90;;;;;;5033209;28;20055;-73
2023/05/23 00:44:14;;;;;;;31.27;16.98;;;14.70;99.90;;;;;;5037056;28;20493;-73
2023/05/23 00:46:43;;;;;;;25.55;15.20;;;14.70;99.90;;;;;;5044196;28;20033;-72
2023/05/23 00:49:09;;;;;;;24.95;16.02;;;14.60;99.90;;;;;;5052134;28;20041;-72
2023/05/23 00:51:35;;;;;;;24.67;15.45;;;14.50;99.90;;;;;;5037158;28;20037;-72
2023/05/23 00:54:03;;;;;;;24.13;14.68;;;14.50;99.90;;;;;;5043415;28;20405;-72
2023/05/23 00:56:29;;;;;;;22.92;14.57;;;14.50;99.90;;;;;;5043570;28;20432;-72
2023/05/23 00:58:55;;;;;;;25.77;15.27;;;14.60;99.90;;;;;;5049457;28;20493;-72
2023/05/23 01:01:21;;;;;;;21.90;13.25;;;14.50;99.90;;;;;;5050866;28;20037;-73
2023/05/23 01:03:47;;;;;;;23.10;14.07;;;14.50;99.90;;;;;;5064383;28;20045;-72
2023/05/23 01:06:13;;;;;;;24.02;14.45;;;14.50;99.90;;;;;;5049939;28;20188;-72
2023/05/23 01:08:41;;;;;;;21.48;15.00;;;14.50;99.90;;;;;;5038153;28;20112;-71
2023/05/23 01:11:16;;;;;;;28.00;15.73;;;14.50;99.90;;;;;;5041582;28;20481;-72
2023/05/23 01:13:50;;;;;;;21.52;14.43;;;14.50;99.90;;;;;;5049993;28;20080;-71
2023/05/23 01:16:26;;;;;;;21.42;14.65;;;14.50;99.90;;;;;;5047620;28;20040;-72
2023/05/23 01:18:57;;;;;;;26.17;16.10;;;14.40;99.90;;;;;;5044781;28;20564;-72
2023/05/23 01:21:25;;;;;;;25.08;16.65;;;14.40;99.90;;;;;;5039582;28;20047;-72
2023/05/23 01:24:01;;;;;;;22.30;13.93;;;14.40;99.90;;;;;;5041361;28;20116;-72
2023/05/23 01:26:33;;;;;;;21.92;15.20;;;14.50;99.90;;;;;;5065571;28;20115;-72
2023/05/23 01:29:21;;;;;;;20.20;14.27;;;14.30;99.90;;;;;;5039968;28;20053;-73
2023/05/23 01:31:51;;;;;;;20.35;14.52;;;14.30;99.90;;;;;;5036534;28;20120;-71
2023/05/23 01:34:18;;;;;;;23.13;13.27;;;14.30;99.90;;;;;;5047214;28;20447;-72
2023/05/23 01:36:43;;;;;;;20.98;13.35;;;14.40;99.90;;;;;;5032218;28;20096;-72
2023/05/23 01:39:10;;;;;;;19.63;12.23;;;14.40;99.90;;;;;;5047825;28;20432;-72
2023/05/23 01:41:35;;;;;;;17.77;11.85;;;14.30;99.90;;;;;;5040471;28;20044;-72
2023/05/23 01:44:02;;;;;;;21.60;11.57;;;14.40;99.90;;;;;;5046602;28;20041;-72
2023/05/23 01:46:29;;;;;;;16.40;9.77;;;14.40;99.90;;;;;;5041536;28;20083;-73
2023/05/23 01:48:56;;;;;;;15.85;9.15;;;14.30;99.90;;;;;;5039718;28;20056;-72
2023/05/23 01:51:22;;;;;;;18.38;9.52;;;14.30;99.90;;;;;;5034290;28;20719;-73
2023/05/23 01:53:50;;;;;;;17.13;9.25;;;14.30;99.90;;;;;;5034249;28;20132;-72
2023/05/23 01:56:16;;;;;;;15.07;8.55;;;14.20;99.90;;;;;;5032403;28;20451;-70
2023/05/23 01:58:42;;;;;;;15.68;8.88;;;14.10;99.90;;;;;;5034928;28;20520;-73
2023/05/23 02:01:09;;;;;;;17.35;9.13;;;14.00;99.90;;;;;;5044721;28;20033;-72
2023/05/23 02:03:35;;;;;;;15.88;8.80;;;14.00;99.90;;;;;;5051945;28;20048;-71
2023/05/23 02:06:00;;;;;;;18.50;9.15;;;14.10;99.90;;;;;;5051671;28;20040;-72
2023/05/23 02:08:26;;;;;;;20.52;8.80;;;14.00;99.90;;;;;;5050932;28;20540;-73
2023/05/23 02:10:51;;;;;;;16.85;9.40;;;14.10;99.90;;;;;;5051809;28;20040;-72
2023/05/23 02:13:17;;;;;;;21.88;10.18;;;14.00;99.90;;;;;;5050825;28;20522;-73
2023/05/23 02:15:43;;;;;;;25.40;11.60;;;13.90;99.90;;;;;;5053214;28;20073;-72
2023/05/23 02:18:08;;;;;;;23.08;10.45;;;13.90;99.90;;;;;;5051086;28;20108;-72
2023/05/23 02:20:34;;;;;;;22.35;9.52;;;13.90;99.90;;;;;;5051949;28;20044;-73
2023/05/23 02:22:59;;;;;;;18.45;9.43;;;13.90;99.90;;;;;;5027330;28;20435;-73
2023/05/23 02:25:25;;;;;;;19.58;9.60;;;13.80;99.90;;;;;;5050815;28;20040;-73
2023/05/23 02:27:51;;;;;;;21.05;9.52;;;13.90;99.90;;;;;;5049865;28;20451;-72
2023/05/23 02:30:16;;;;;;;22.50;9.63;;;13.80;99.90;;;;;;5068234;28;20081;-72
2023/05/23 02:32:42;;;;;;;19.80;10.13;;;13.90;99.90;;;;;;5048251;28;20033;-72
2023/05/23 02:35:09;;;;;;;18.60;9.00;;;13.90;99.90;;;;;;5046573;28;20128;-72
2023/05/23 02:37:34;;;;;;;19.15;8.82;;;13.80;99.90;;;;;;5048238;28;20091;-73
2023/05/23 02:40:00;;;;;;;20.30;8.70;;;13.80;99.90;;;;;;5048344;28;20460;-72
2023/05/23 02:42:25;;;;;;;21.52;9.32;;;13.70;99.90;;;;;;5044538;28;20049;-72
2023/05/23 02:44:51;;;;;;;16.83;9.35;;;13.70;99.90;;;;;;5047976;28;20045;-71
2023/05/23 02:47:17;;;;;;;20.55;8.52;;;13.70;99.90;;;;;;5048212;28;20449;-73
2023/05/23 02:49:42;;;;;;;25.35;9.13;;;13.60;99.90;;;;;;5043879;28;20037;-73
2023/05/23 02:52:08;;;;;;;16.00;7.40;;;13.70;99.90;;;;;;5042457;28;20132;-72
2023/05/23 02:54:33;;;;;;;14.45;7.07;;;13.50;99.90;;;;;;5054909;28;20465;-73
2023/05/23 02:57:00;;;;;;;14.75;7.13;;;13.60;99.90;;;;;;5052146;28;20045;-73
2023/05/23 02:59:26;;;;;;;14.70;7.07;;;13.60;99.90;;;;;;5052820;28;20037;-72
2023/05/23 03:01:51;;;;;;;15.27;7.15;;;13.40;99.90;;;;;;5041266;28;20045;-72
2023/05/23 03:04:17;;;;;;;14.75;6.78;;;13.40;99.90;;;;;;5034630;28;20042;-72
2023/05/23 03:06:43;;;;;;;18.77;7.40;;;13.40;99.90;;;;;;5055611;28;20037;-72
2023/05/23 03:09:09;;;;;;;19.13;7.88;;;13.30;99.90;;;;;;5053962;28;20053;-72
2023/05/23 03:11:36;;;;;;;22.48;8.48;;;13.30;99.90;;;;;;5052980;28;20410;-71
2023/05/23 03:14:01;;;;;;;19.38;7.50;;;13.20;99.90;;;;;;5036036;28;20065;-72
2023/05/23 03:16:27;;;;;;;21.13;8.75;;;13.30;99.90;;;;;;5043730;28;20512;-73
2023/05/23 03:18:52;;;;;;;20.95;7.75;;;13.20;99.90;;;;;;5032877;28;20041;-73
2023/05/23 03:21:18;;;;;;;20.90;7.90;;;13.20;99.90;;;;;;5053899;28;20118;-73
2023/05/23 03:23:44;;;;;;;17.52;7.72;;;13.20;99.90;;;;;;5031207;28;20036;-72
2023/05/23 03:26:09;;;;;;;20.23;8.95;;;13.30;99.90;;;;;;5042956;28;20071;-73
2023/05/23 03:28:35;;;;;;;22.40;8.40;;;13.30;99.90;;;;;;5049055;28;20037;-72
2023/05/23 03:31:00;;;;;;;20.88;8.43;;;13.30;99.90;;;;;;5046203;28;20430;-72
2023/05/23 03:33:26;;;;;;;23.23;9.25;;;13.20;99.90;;;;;;5052365;28;20045;-72
2023/05/23 03:35:52;;;;;;;18.20;7.38;;;13.10;99.90;;;;;;5050295;28;20028;-72
2023/05/23 03:38:17;;;;;;;24.38;9.23;;;13.10;99.90;;;;;;5048995;28;20033;-72
2023/05/23 03:40:43;;;;;;;20.08;6.88;;;13.10;99.90;;;;;;5050035;28;20044;-71
2023/05/23 03:43:09;;;;;;;21.30;7.82;;;13.10;99.90;;;;;;5052890;28;20083;-72
2023/05/23 03:45:34;;;;;;;21.52;8.20;;;13.00;99.90;;;;;;5041999;28;20033;-72
2023/05/23 03:48:00;;;;;;;20.83;7.95;;;13.00;99.90;;;;;;5037846;28;20037;-72
2023/05/23 03:50:26;;;;;;;16.95;7.25;;;13.10;99.90;;;;;;5050051;28;20049;-72
2023/05/23 03:52:52;;;;;;;17.98;7.57;;;13.10;99.90;;;;;;5062440;28;20508;-72
2023/05/23 03:55:23;;;;;;;15.02;7.05;;;13.00;99.90;;;;;;5038503;28;20048;-71
2023/05/23 03:57:50;;;;;;;19.20;7.45;;;13.00;99.90;;;;;;5035641;28;20056;-72
2023/05/23 04:00:15;;;;;;;14.30;5.47;;;13.00;99.90;;;;;;5040122;28;20083;-73
2023/05/23 04:02:42;;;;;;;16.58;6.10;;;13.00;99.90;;;;;;5061006;28;20049;-73
2023/05/23 04:05:08;;;;;;;15.43;6.18;;;13.10;99.90;;;;;;5045496;28;20125;-73
2023/05/23 04:07:34;;;;;;;16.08;6.60;;;13.00;99.90;;;;;;5047371;28;20454;-72
2023/05/23 04:10:00;;;;;;;15.32;6.75;;;12.90;99.90;;;;;;5054241;28;20393;-72
2023/05/23 04:12:25;;;;;;;15.93;6.55;;;12.90;99.90;;;;;;5052213;28;20045;-72
2023/05/23 04:14:51;;;;;;;17.77;5.65;;;12.90;99.90;;;;;;5050075;28;20033;-73
2023/05/23 04:17:17;;;;;;;14.27;6.13;;;12.90;99.90;;;;;;5048587;28;20033;-72
2023/05/23 04:19:43;;;;;;;19.40;5.78;;;12.90;99.90;;;;;;5048202;28;20043;-73
2023/05/23 04:22:09;;;;;;;16.23;5.65;;;12.80;99.90;;;;;;5034251;28;20490;-73
2023/05/23 04:24:35;;;;;;;13.52;5.57;;;12.80;99.90;;;;;;5049227;28;20048;-73
2023/05/23 04:27:01;;;;;;;20.63;5.88;;;12.80;99.90;;;;;;5043691;28;20514;-73
2023/05/23 04:29:30;;;;;;;17.08;5.63;;;12.70;99.90;;;;;;5049962;28;20127;-73
2023/05/23 04:31:56;;;;;;;18.25;5.55;;;12.80;99.90;;;;;;5047368;28;20041;-73
2023/05/23 04:34:22;;;;;;;16.88;5.93;;;12.80;99.90;;;;;;5049119;28;20459;-73
2023/05/23 04:36:48;;;;;;;18.45;5.35;;;12.80;99.90;;;;;;5037994;28;20060;-73
2023/05/23 04:39:14;;;;;;;15.45;5.25;;;12.80;99.90;;;;;;5050035;28;20048;-73
2023/05/23 04:41:43;;;;;;;17.60;5.43;;;12.80;99.90;;;;;;5063374;28;20051;-72
2023/05/23 04:44:09;;;;;;;17.40;5.47;;;12.80;99.90;;;;;;5039282;28;20041;-73
2023/05/23 04:46:35;;;;;;;16.10;4.80;;;12.80;99.90;;;;;;5041216;28;20116;-73
2023/05/23 04:49:01;;;;;;;15.60;4.45;;;12.80;99.90;;;;;;5045413;28;20497;-73
2023/05/23 04:51:27;;;;;;;14.32;4.25;;;12.80;99.90;;;;;;5050564;28;20451;-73
2023/05/23 04:53:53;;;;;;;11.73;4.18;;;12.80;99.90;;;;;;5036106;28;20084;-72
2023/05/23 04:56:21;;;;;;;13.40;4.18;;;12.80;99.90;;;;;;5034183;28;20116;-73
2023/05/23 04:58:47;;;;;;;14.27;4.60;;;12.70;99.90;;;;;;5051867;28;20080;-73
2023/05/23 05:01:12;;;;;;;15.43;4.68;;;12.80;99.90;;;;;;5040068;28;20079;-73
2023/05/23 05:03:38;;;;;;;13.25;4.35;;;12.80;99.90;;;;;;5045515;28;20041;-72
2023/05/23 05:06:04;;;;;;;16.08;4.68;;;12.80;99.90;;;;;;5052206;28;20036;-72
2023/05/23 05:08:31;;;;;;;14.68;5.18;;;12.80;99.90;;;;;;5047881;28;20452;-73
2023/05/23 05:10:56;;;;;;;13.60;4.35;;;12.90;99.90;;;;;;5053143;28;20517;-73
2023/05/23 05:13:22;;;;;;;18.52;4.60;;;12.90;99.90;;;;;;5032428;28;20041;-73
2023/05/23 05:15:48;;;;;;;15.57;4.47;;;12.90;99.90;;;;;;5050375;28;20421;-73
2023/05/23 05:18:14;;;;;;;20.48;6.00;;;12.80;99.90;;;;;;5062968;28;20456;-73
2023/05/23 05:20:39;;;;;;;19.83;5.63;;;12.70;99.90;;;;;;5050434;28;20033;-72
2023/05/23 05:23:05;;;;;;;19.05;5.97;;;12.80;99.90;;;;;;5046877;28;20119;-73
2023/05/23 05:25:33;;;;;;;14.80;6.28;;;12.70;99.90;;;;;;5039478;28;20053;-73
2023/05/23 05:28:06;;;;;;;16.90;6.63;;;12.70;99.90;;;;;;5047832;28;20037;-71
2023/05/23 05:30:34;;;;;;;15.98;6.20;;;12.60;99.90;;;;;;5035411;28;20121;-71
2023/05/23 05:33:01;;;;;;;18.58;7.03;;;12.50;99.90;;;;;;5041919;28;20045;-72
2023/05/23 05:35:27;;;;;;;18.90;7.03;;;12.50;99.90;;;;;;5048286;28;20473;-73
2023/05/23 05:37:52;;;;;;;18.95;7.72;;;12.50;99.90;;;;;;5045703;28;20044;-71
2023/05/23 05:40:18;;;;;;;18.15;7.22;;;12.20;99.90;;;;;;5033097;28;20049;-72
2023/05/23 05:42:44;;;;;;;21.25;7.35;;;12.30;99.90;;;;;;5044761;28;20089;-71
2023/05/23 05:45:10;;;;;;;15.20;5.55;;;12.30;99.90;;;;;;5048425;28;20075;-71
2023/05/23 05:47:37;;;;;;;16.00;6.18;;;12.30;99.90;;;;;;5046632;28;20040;-72
2023/05/23 05:50:09;;;;;;;18.42;7.30;;;12.30;99.90;;;;;;5032098;28;20495;-72
2023/05/23 05:52:38;;;;;;;15.52;6.53;;;12.20;99.90;;;;;;5038971;28;20049;-72
2023/05/23 05:55:06;;;;;;;14.27;6.05;;;12.10;99.90;;;;;;5051427;28;20041;-72
2023/05/23 05:57:32;;;;;;;18.55;6.13;;;12.20;99.90;;;;;;5053393;28;20049;-72
2023/05/23 05:59:58;;;;;;;18.08;5.55;;;12.10;99.90;;;;;;5052097;28;20040;-72
2023/05/23 06:02:23;;;;;;;15.07;5.25;;;12.20;99.90;;;;;;5050888;28;20094;-72
2023/05/23 06:04:49;;;;;;;14.82;5.63;;;12.10;99.90;;;;;;5049923;28;20045;-72
2023/05/23 06:07:15;;;;;;;11.50;5.68;;;12.10;99.90;;;;;;5051012;28;20489;-71
2023/05/23 06:09:40;;;;;;;14.68;5.10;;;12.10;99.90;;;;;;5039825;28;20049;-72
2023/05/23 06:12:06;;;;;;;13.55;4.72;;;12.20;99.90;;;;;;5066968;28;20559;-72
2023/05/23 06:14:32;;;;;;;16.10;5.30;;;12.20;99.90;;;;;;5050882;28;20041;-72
2023/05/23 06:16:58;;;;;;;13.40;4.57;;;12.20;99.90;;;;;;5054022;28;20056;-73
2023/05/23 06:19:24;;;;;;;11.80;4.70;;;12.10;99.90;;;;;;5065590;28;20544;-72
2023/05/23 06:21:50;;;;;;;12.77;5.10;;;12.10;99.90;;;;;;5057134;28;20123;-72
2023/05/23 06:24:15;;;;;;;12.38;4.93;;;12.10;99.90;;;;;;5044722;28;20041;-72
2023/05/23 06:26:41;;;;;;;15.20;5.13;;;12.20;99.90;;;;;;5041366;28;20406;-72
2023/05/23 06:29:06;;;;;;;12.18;3.95;;;12.10;99.90;;;;;;5062800;28;20079;-71
2023/05/23 06:31:32;;;;;;;13.05;4.38;;;12.20;99.90;;;;;;5061713;28;20464;-71
2023/05/23 06:33:58;;;;;;;14.52;4.65;;;12.10;99.90;;;;;;5055999;28;20029;-71
2023/05/23 06:36:23;;;;;;;14.13;4.05;;;12.10;99.90;;;;;;5040900;28;20040;-70
2023/05/23 06:38:49;;;;;;;13.45;4.45;;;12.10;99.90;;;;;;5040569;28;20451;-70
2023/05/23 06:41:14;;;;;;;13.20;3.90;;;12.10;99.90;;;;;;5041768;28;20075;-71
2023/05/23 06:43:40;;;;;;;14.23;4.05;;;12.10;99.90;;;;;;5052403;28;20074;-71
2023/05/23 06:46:05;;;;;;;13.73;4.28;;;12.10;99.90;;;;;;5056807;28;20032;-71
2023/05/23 06:48:31;;;;;;;15.45;4.22;;;12.10;99.90;;;;;;5058371;28;20477;-71
2023/05/23 06:50:57;;;;;;;16.50;4.55;;;12.00;99.90;;;;;;5057017;28;20082;-71
2023/05/23 06:53:22;;;;;;;18.63;4.63;;;12.00;99.90;;;;;;5054638;28;20052;-72
2023/05/23 06:55:48;;;;;;;16.00;4.20;;;12.00;99.90;;;;;;5072258;28;20085;-72
2023/05/23 06:58:13;;;;;;;13.73;4.35;;;12.00;99.90;;;;;;5043583;28;20071;-72
2023/05/23 07:00:39;;;;;;;15.68;3.90;;;12.10;99.90;;;;;;5037970;28;20176;-72
2023/05/23 07:03:06;;;;;;;13.95;4.10;;;12.10;99.90;;;;;;5045169;28;20033;-71
2023/05/23 07:05:33;;;;;;;15.50;3.80;;;12.10;99.90;;;;;;5037395;28;20128;-71
2023/05/23 07:07:59;;;;;;;11.80;3.65;;;12.10;99.90;;;;;;5043953;28;20442;-71
2023/05/23 07:10:25;;;;;;;15.23;3.50;;;12.10;99.90;;;;;;5044543;28;20124;-71
2023/05/23 07:12:50;;;;;;;13.07;3.85;;;12.20;99.90;;;;;;5036996;28;20091;-71
2023/05/23 07:15:16;;;;;;;16.42;4.10;;;12.20;99.90;;;;;;5051651;28;20040;-71
2023/05/23 07:17:43;;;;;;;20.98;5.05;;;12.10;99.90;;;;;;5063740;28;20044;-71
2023/05/23 07:20:09;;;;;;;14.85;3.67;;;12.20;99.90;;;;;;5047867;28;20443;-72
2023/05/23 07:22:35;;;;;;;17.58;4.38;;;12.30;99.90;;;;;;5045779;28;20132;-70
2023/05/23 07:25:00;;;;;;;20.17;4.40;;;12.30;99.90;;;;;;5046494;28;20474;-71
2023/05/23 07:27:26;;;;;;;17.17;3.72;;;12.30;99.90;;;;;;5052787;28;20047;-71
2023/05/23 07:29:52;;;;;;;18.55;4.00;;;12.40;99.90;;;;;;5042166;28;20045;-71
2023/05/23 07:32:18;;;;;;;16.42;4.15;;;12.40;99.90;;;;;;5045365;28;20444;-72
2023/05/23 07:34:43;;;;;;;18.98;5.10;;;12.30;99.90;;;;;;5048048;28;20594;-71
2023/05/23 07:37:09;;;;;;;18.20;3.80;;;12.30;99.90;;;;;;5053089;28;20531;-71
2023/05/23 07:39:35;;;;;;;18.60;3.47;;;12.20;99.90;;;;;;5052482;28;20493;-71
2023/05/23 07:42:00;;;;;;;22.50;3.75;;;12.30;99.90;;;;;;5036544;28;20041;-71
2023/05/23 07:44:28;;;;;;;13.55;2.80;;;12.30;99.90;;;;;;5053411;28;20045;-71
2023/05/23 07:46:53;;;;;;;14.45;3.35;;;12.40;99.90;;;;;;5044425;28;20128;-72
2023/05/23 07:49:19;;;;;;;13.98;3.50;;;12.40;99.90;;;;;;5052501;28;20124;-72
2023/05/23 07:51:45;;;;;;;12.52;3.28;;;12.40;99.90;;;;;;5036125;28;20033;-71
2023/05/23 07:54:11;;;;;;;19.00;3.85;;;12.30;99.90;;;;;;5051206;28;20041;-73
2023/05/23 07:56:37;;;;;;;17.40;3.88;;;12.40;99.90;;;;;;5043343;28;20056;-72
2023/05/23 07:59:03;;;;;;;17.38;3.42;;;12.30;99.90;;;;;;5041008;28;20124;-73
2023/05/23 08:01:29;;;;;;;18.60;3.97;;;12.40;99.90;;;;;;5070277;28;20163;-72
2023/05/23 08:03:54;;;;;;;19.42;3.38;;;12.40;99.90;;;;;;5054732;28;20560;-72
2023/05/23 08:06:20;;;;;;;13.02;3.10;;;12.40;99.90;;;;;;5051937;28;20044;-72
2023/05/23 08:08:46;;;;;;;20.30;4.00;;;12.40;99.90;;;;;;5041243;28;20041;-72
2023/05/23 08:11:12;;;;;;;19.13;3.60;;;12.40;99.90;;;;;;5050146;28;20116;-71
2023/05/23 08:13:37;;;;;;;12.85;2.67;;;12.40;99.90;;;;;;5034970;28;20088;-70
2023/05/23 08:16:03;;;;;;;19.88;4.28;;;12.50;99.90;;;;;;5048524;28;20041;-71
2023/05/23 08:18:29;;;;;;;14.00;2.85;;;12.40;99.90;;;;;;5055116;28;20052;-71
2023/05/23 08:20:55;;;;;;;15.48;4.20;;;12.50;99.90;;;;;;5052651;28;20029;-72
2023/05/23 08:23:21;;;;;;;20.48;4.22;;;12.50;99.90;;;;;;5033184;28;20052;-72
2023/05/23 08:25:46;;;;;;;17.67;3.83;;;12.60;99.90;;;;;;5043189;28;20074;-72
2023/05/23 08:28:12;;;;;;;21.00;3.60;;;12.60;99.90;;;;;;5051224;28;20041;-72
2023/05/23 08:30:38;;;;;;;17.60;3.50;;;12.70;99.90;;;;;;5068784;28;20049;-72
2023/05/23 08:33:03;;;;;;;18.30;3.60;;;12.80;99.90;;;;;;5036201;28;20048;-72
2023/05/23 08:35:33;;;;;;;16.95;3.72;;;12.90;99.90;;;;;;5049940;28;20524;-73
2023/05/23 08:38:00;;;;;;;17.02;3.45;;;13.00;99.90;;;;;;5050768;28;20033;-72
2023/05/23 08:40:28;;;;;;;15.77;3.60;;;13.00;99.90;;;;;;5052856;28;20069;-72
2023/05/23 08:42:54;;;;;;;15.68;3.67;;;13.10;99.90;;;;;;5058574;28;20099;-72
2023/05/23 08:45:20;;;;;;;14.32;3.15;;;13.10;99.90;;;;;;5038928;28;20108;-71
2023/05/23 08:47:46;;;;;;;18.85;4.43;;;13.20;99.90;;;;;;5045515;28;20048;-72
2023/05/23 08:50:16;;;;;;;17.52;4.28;;;13.20;99.90;;;;;;5051298;28;20037;-72
2023/05/23 08:53:03;;;;;;;15.70;3.70;;;13.20;99.90;;;;;;5029882;28;20059;-72
2023/05/23 08:55:29;;;;;;;15.13;4.32;;;13.30;99.90;;;;;;5035187;28;20098;-73
2023/05/23 08:57:58;;;;;;;10.80;3.03;;;13.50;99.90;;;;;;5050955;28;20043;-72
2023/05/23 09:00:24;;;;;;;15.90;3.78;;;13.80;99.90;;;;;;5049499;28;20560;-71
2023/05/23 09:02:53;;;;;;;13.07;2.97;;;13.80;99.90;;;;;;5029710;28;20102;-71
2023/05/23 09:05:20;;;;;;;11.70;3.63;;;13.70;99.90;;;;;;5027594;28;20401;-71
2023/05/23 09:07:46;;;;;;;15.23;3.80;;;13.60;99.90;;;;;;5047664;28;20397;-72
2023/05/23 09:10:15;;;;;;;18.98;3.90;;;13.70;99.90;;;;;;5050547;28;20048;-72
2023/05/23 09:12:42;;;;;;;16.73;3.53;;;13.80;99.90;;;;;;5038427;28;20029;-71
2023/05/23 09:15:09;;;;;;;17.15;3.83;;;14.00;99.90;;;;;;5033880;28;20037;-71
2023/05/23 09:17:36;;;;;;;16.58;3.47;;;13.90;99.90;;;;;;5040957;28;20403;-71
2023/05/23 09:20:06;;;;;;;17.33;3.42;;;13.80;99.90;;;;;;5051640;28;20115;-70
2023/05/23 09:22:32;;;;;;;19.80;3.58;;;13.60;99.90;;;;;;5050051;28;20409;-71
2023/05/23 09:24:59;;;;;;;16.42;3.45;;;13.50;99.90;;;;;;5044058;28;20033;-71
2023/05/23 09:27:24;;;;;;;15.27;3.50;;;13.50;99.90;;;;;;5039285;28;20124;-71
2023/05/23 09:29:50;;;;;;;12.27;2.70;;;13.60;99.90;;;;;;5051091;28;20115;-71
2023/05/23 09:32:16;;;;;;;13.07;3.45;;;13.80;99.90;;;;;;5054861;28;20033;-71
2023/05/23 09:34:59;;;;;;;14.52;3.83;;;13.70;99.90;;;;;;5048648;28;20037;-70
2023/05/23 09:37:31;;;;;;;;;;;13.70;99.90;;;;;;5051705;28;20076;-71
2023/05/23 09:40:05;;;;;;;17.85;3.72;;;13.70;99.90;;;;;;5058518;28;19920;-72
2023/05/23 09:42:35;;;;;;;15.43;3.92;;;13.70;99.90;;;;;;5068178;28;20049;-72
2023/05/23 09:45:01;;;;;;;19.17;3.95;;;13.90;99.90;;;;;;5049800;28;20512;-72
2023/05/23 09:47:27;;;;;;;15.68;2.97;;;14.00;99.90;;;;;;5042987;28;20067;-71
2023/05/23 09:49:53;;;;;;;13.05;3.17;;;14.00;99.90;;;;;;5040157;28;20037;-71
2023/05/23 09:52:19;;;;;;;13.23;3.13;;;14.10;99.90;;;;;;5034612;28;20045;-70
2023/05/23 09:54:45;;;;;;;14.90;3.65;;;14.00;99.90;;;;;;5048344;28;20107;-71
2023/05/23 09:57:14;;;;;;;16.60;3.55;;;14.00;99.90;;;;;;5052617;28;20041;-71
2023/05/23 09:59:41;;;;;;;12.57;3.33;;;14.30;99.90;;;;;;5050240;28;20049;-71
2023/05/23 10:02:11;;;;;;;24.00;4.00;;;14.50;99.90;;;;;;5051825;28;20138;-71
2023/05/23 10:04:39;;;;;;;25.92;5.13;;;14.50;99.90;;;;;;5052364;28;20161;-71
2023/05/23 10:07:17;;;;;;;12.20;2.55;;;14.50;99.90;;;;;;5048920;28;20040;-71
2023/05/23 10:09:53;;;;;;;17.20;3.40;;;14.50;99.90;;;;;;5026119;28;20045;-71
2023/05/23 10:12:31;;;;;;;15.52;3.58;;;14.50;99.90;;;;;;5051099;28;20041;-71
2023/05/23 10:15:01;;;;;;;15.35;3.80;;;14.50;99.90;;;;;;5031335;28;20138;-71
2023/05/23 10:17:38;;;;;;;15.30;3.80;;;14.50;99.90;;;;;;5054363;28;20044;-72
2023/05/23 10:20:11;;;;;;;14.52;2.92;;;14.50;99.90;;;;;;5047425;28;20057;-72
2023/05/23 10:22:37;;;;;;;14.32;3.33;;;14.60;99.90;;;;;;5037605;28;20505;-72
2023/05/23 10:25:09;;;;;;;14.60;3.45;;;14.80;99.90;;;;;;5034260;28;20494;-70
2023/05/23 10:27:36;;;;;;;;;;;14.70;99.90;;;;;;5044302;28;20036;-72
2023/05/23 10:30:02;;;;;;;15.38;3.30;;;14.70;99.90;;;;;;5045614;28;19970;-72
2023/05/23 10:32:28;;;;;;;11.95;3.10;;;14.50;99.90;;;;;;5023258;28;20068;-72
2023/05/23 10:35:15;;;;;;;11.68;2.85;;;14.50;99.90;;;;;;5047530;28;20432;-72
2023/05/23 10:38:04;;;;;;;13.02;2.97;;;14.40;99.90;;;;;;5051304;28;20044;-73
2023/05/23 10:41:12;;;;;;;19.75;3.40;;;14.40;99.90;;;;;;5049006;28;20041;-71
2023/05/23 10:43:56;;;;;;;17.33;3.97;;;14.50;99.90;;;;;;5042032;28;20064;-73
2023/05/23 10:46:22;;;;;;;17.50;3.13;;;14.60;99.90;;;;;;5043896;28;20077;-72
2023/05/23 10:48:52;;;;;;;14.77;3.28;;;14.50;99.90;;;;;;5017757;28;20072;-72
2023/05/23 10:51:19;;;;;;;12.75;2.70;;;14.60;99.90;;;;;;5032668;28;20049;-72
2023/05/23 10:53:45;;;;;;;17.90;3.10;;;14.70;99.90;;;;;;5048035;28;20057;-72
2023/05/23 10:56:23;;;;;;;14.60;2.70;;;14.80;99.90;;;;;;5050822;28;20040;-73
2023/05/23 10:58:56;;;;;;;19.23;3.47;;;14.70;99.90;;;;;;5045474;28;20102;-73
2023/05/23 11:01:22;;;;;;;15.63;3.47;;;14.70;99.90;;;;;;5046409;28;20512;-72
2023/05/23 11:03:51;;;;;;;17.60;3.15;;;14.50;99.90;;;;;;5051351;28;20052;-72
2023/05/23 11:06:38;;;;;;;16.92;3.58;;;14.50;99.90;;;;;;5040374;28;20049;-73
2023/05/23 11:09:12;;;;;;;16.58;3.38;;;14.40;99.90;;;;;;5025249;28;20120;-72
2023/05/23 11:11:53;;;;;;;19.67;3.15;;;14.60;99.90;;;;;;5054244;28;20397;-72
2023/05/23 11:14:38;;;;;;;12.85;3.85;;;14.60;99.90;;;;;;5069581;28;20481;-73
2023/05/23 11:17:18;;;;;;;13.30;2.90;;;14.70;99.90;;;;;;5035556;28;20056;-73
2023/05/23 11:20:02;;;;;;;13.43;2.80;;;14.70;99.90;;;;;;5043665;28;20030;-72
2023/05/23 11:22:30;;;;;;;17.52;3.28;;;14.60;99.90;;;;;;5049507;28;20136;-71
2023/05/23 11:24:57;;;;;;;13.80;3.00;;;14.60;99.90;;;;;;5050962;28;20045;-70
2023/05/23 11:27:40;;;;;;;16.73;2.95;;;14.80;99.90;;;;;;5050886;28;20120;-70
2023/05/23 11:30:14;;;;;;;12.73;2.65;;;14.90;99.90;;;;;;5048921;28;20045;-72
2023/05/23 11:32:40;;;;;;;12.48;2.95;;;14.90;99.90;;;;;;5050009;28;20049;-71
2023/05/23 11:35:09;;;;;;;13.43;2.78;;;14.70;99.90;;;;;;5050217;28;20044;-71
2023/05/23 11:37:36;;;;;;;15.30;2.97;;;14.70;99.90;;;;;;5042708;28;20037;-70
2023/05/23 11:40:24;;;;;;;15.90;3.83;;;14.60;99.90;;;;;;5037658;28;20040;-71
2023/05/23 11:42:50;;;;;;;13.00;2.95;;;14.60;99.90;;;;;;5040876;28;20073;-71
2023/05/23 11:45:18;;;;;;;17.83;3.00;;;14.60;99.90;;;;;;5034082;28;20071;-71
2023/05/23 11:47:44;;;;;;;14.27;2.88;;;14.60;99.90;;;;;;5034950;28;20048;-71
2023/05/23 11:50:10;;;;;;;13.48;2.55;;;14.80;99.90;;;;;;5036022;28;20504;-72
2023/05/23 11:52:35;;;;;;;13.88;3.13;;;14.90;99.90;;;;;;5053494;28;20053;-70
2023/05/23 11:55:01;;;;;;;12.13;2.88;;;14.90;99.90;;;;;;5036581;28;20076;-71
2023/05/23 11:57:27;;;;;;;12.73;3.15;;;14.90;99.90;;;;;;5053486;28;20051;-71
2023/05/23 11:59:53;;;;;;;14.68;3.40;;;14.80;99.90;;;;;;5036435;28;20049;-71
2023/05/23 12:02:21;;;;;;;18.20;4.50;;;14.70;99.90;;;;;;5045600;28;20033;-71
2023/05/23 12:04:48;;;;;;;14.23;3.35;;;14.60;99.90;;;;;;5041556;28;20059;-71
2023/05/23 12:07:13;;;;;;;14.27;3.00;;;14.50;99.90;;;;;;5053706;28;20386;-71
2023/05/23 12:09:43;;;;;;;18.33;3.40;;;14.60;99.90;;;;;;5035995;28;20045;-71
2023/05/23 12:12:09;;;;;;;13.15;3.47;;;14.60;99.90;;;;;;5053423;28;20072;-71
2023/05/23 12:14:37;;;;;;;14.00;3.13;;;14.50;99.90;;;;;;5053085;28;20045;-71
2023/05/23 12:17:03;;;;;;;14.43;2.92;;;14.40;99.90;;;;;;5053811;28;20045;-71
2023/05/23 12:19:29;;;;;;;15.35;3.25;;;14.40;99.90;;;;;;5053248;28;20051;-71
2023/05/23 12:21:55;;;;;;;15.90;3.20;;;14.40;99.90;;;;;;5053331;28;20088;-70
2023/05/23 12:24:22;;;;;;;13.20;3.55;;;14.50;99.90;;;;;;5044847;28;20077;-71
2023/05/23 12:26:53;;;;;;;13.23;3.10;;;14.40;99.90;;;;;;5052845;28;20071;-71
2023/05/23 12:29:21;;;;;;;13.40;3.00;;;14.40;99.90;;;;;;5053657;28;20048;-71
2023/05/23 12:31:50;;;;;;;12.15;2.53;;;14.30;99.90;;;;;;5053545;28;20084;-70
2023/05/23 12:34:16;;;;;;;11.27;2.50;;;14.30;99.90;;;;;;5036823;28;20045;-71
2023/05/23 12:36:43;;;;;;;13.43;2.58;;;14.30;99.90;;;;;;5033361;28;20042;-71
2023/05/23 12:39:09;;;;;;;12.80;2.85;;;14.40;99.90;;;;;;5050205;28;20116;-71